Pagina principale
METAR-TAF:

METAR-TAF

Aeroporti :

Biserta, Tunisia

latitudine: 37-15N, longitudine: 009-48E, altezza: 5 m

Osservazione

Il bollettino è stato emesso 2 ore e 17 minuti fa, alle 00:00 UTC
Vento 5 kt da ovest/nord-ovest
Temperature 16°C
Umidità 88%
Pressione 1011 hPa
Visibilità 10 km o più
Poco nuvoloso ad un'altezza di 2000 ft

METAR: DTTB 160000Z 30005KT 9999 FEW020 16/14 Q1011

Ora: 03:17 (02:17 UTC)

Previsione

Il bollettino è stato emesso 2 ore e 17 minuti fa, alle 00:00 UTC
Previsione valida dal 16 alle 01 UTC al 16 alle 10 UTC
Vento 5 kt da ovest/nord-ovest
Visibilità 10 km o più
Poco nuvoloso ad un'altezza di 2000 ft
Evoluzione graduale
dal 16 alle 01 UTC al 16 alle 03 UTC
Vento 10 kt da nord/nord-ovest

TAF: DTTB 160000Z 1601/1610 30005KT 9999 FEW020 BECMG 1601/1603 33010KT

Osservazioni e previsioni meteorologiche di più di 4000 aeroporti (messaggi METAR e TAF).

Le stazioni disponibili sono rappresentate dai dischi gialli e rossi sulla carta.

Puntare il mouse per vedere il nome della stazione.

Clicca sopra per visualizzare le osservazioni e previsioni meteorologiche.

Per cambiare la mappa : fare clic sui pulsanti verdi con una croce nera per ingrandire, il pulsante verde con un trattino per diminuire, o sulla freccia verde per le mappe adiacenti.


METAR-TAF: